createdAt,value
2016-09-14T00:00:26.892Z,95.7
2016-09-14T00:01:26.896Z,95.26
2016-09-14T00:02:26.894Z,95.31
2016-09-14T00:03:26.987Z,94.92
2016-09-14T00:04:26.878Z,95.12
2016-09-14T00:05:26.866Z,95.98
2016-09-14T00:06:26.885Z,95.89
2016-09-14T00:07:26.902Z,96.51
2016-09-14T00:08:26.871Z,96.27
2016-09-14T00:09:26.880Z,96.37
2016-09-14T00:10:26.929Z,97.24
2016-09-14T00:11:26.883Z,96.85
2016-09-14T00:12:26.911Z,96.75
2016-09-14T00:13:26.894Z,96.47
2016-09-14T00:14:26.878Z,96.47
2016-09-14T00:15:26.906Z,97.04
2016-09-14T00:16:26.906Z,97.04
2016-09-14T00:17:26.878Z,97.33
2016-09-14T00:18:26.889Z,97.52
2016-09-14T00:19:26.888Z,97.62
2016-09-14T00:20:26.879Z,97.71
2016-09-14T00:21:26.879Z,97.71
2016-09-14T00:22:26.894Z,97.71
2016-09-14T00:23:26.909Z,97.62
2016-09-14T00:24:26.901Z,97.81
2016-09-14T00:25:26.912Z,97.62
2016-09-14T00:26:26.887Z,97.52
2016-09-14T00:27:26.897Z,97.91
2016-09-14T00:28:26.892Z,97.86
2016-09-14T00:29:27.310Z,97.96
2016-09-14T00:30:26.920Z,97.96
2016-09-14T00:31:26.929Z,98.82
2016-09-14T00:32:26.910Z,98.72
2016-09-14T00:33:26.921Z,99.01
2016-09-14T00:34:26.909Z,98.91
2016-09-14T00:35:26.911Z,99.49
2016-09-14T00:36:26.909Z,99.21
2016-09-14T00:37:26.900Z,99.16
2016-09-14T00:38:28.033Z,99.99
2016-09-14T00:39:26.922Z,99.78
2016-09-14T00:40:26.905Z,99.68
2016-09-14T00:41:26.914Z,99.59
2016-09-14T00:42:26.912Z,99.98
2016-09-14T00:43:26.915Z,99.99
2016-09-14T00:44:27.397Z,99.98
2016-09-14T00:45:26.918Z,99.99
2016-09-14T00:46:26.933Z,99.98
2016-09-14T00:47:26.920Z,99.99
2016-09-14T00:48:26.921Z,99.99
2016-09-14T00:49:26.930Z,99.99
2016-09-14T00:50:26.929Z,99.99
2016-09-14T00:51:26.921Z,99.99
2016-09-14T00:52:26.935Z,99.99
2016-09-14T00:53:26.926Z,99.99
2016-09-14T00:54:26.953Z,99.99
2016-09-14T00:55:27.240Z,99.99
2016-09-14T00:56:26.956Z,99.99
2016-09-14T00:57:26.926Z,99.99
2016-09-14T00:58:26.944Z,99.99
2016-09-14T00:59:26.933Z,99.99
2016-09-14T01:00:26.945Z,99.99
2016-09-14T01:01:26.934Z,99.99
2016-09-14T01:02:26.933Z,99.99
2016-09-14T01:03:26.929Z,99.99
2016-09-14T01:04:26.947Z,99.99
2016-09-14T01:05:26.931Z,99.99
2016-09-14T01:06:26.934Z,99.99
2016-09-14T01:07:26.974Z,99.99
2016-09-14T01:08:27.317Z,99.99
2016-09-14T01:09:26.929Z,99.99
2016-09-14T01:10:26.937Z,99.99
2016-09-14T01:11:26.926Z,99.99
2016-09-14T01:12:26.937Z,99.99
2016-09-14T01:13:26.956Z,99.99
2016-09-14T01:14:26.990Z,99.99
2016-09-14T01:15:26.961Z,99.99
2016-09-14T01:16:26.947Z,99.99
2016-09-14T01:17:26.940Z,99.99
2016-09-14T01:18:27.269Z,99.99
2016-09-14T01:19:26.963Z,99.99
2016-09-14T01:20:26.951Z,99.99
2016-09-14T01:21:26.953Z,99.99
2016-09-14T01:22:26.947Z,99.99
2016-09-14T01:23:26.952Z,99.99
2016-09-14T01:24:26.945Z,99.99
2016-09-14T01:25:26.991Z,99.99
2016-09-14T01:26:26.974Z,99.99
2016-09-14T01:27:26.949Z,99.99
2016-09-14T01:28:26.964Z,99.99
2016-09-14T01:29:26.977Z,99.99
2016-09-14T01:30:26.953Z,99.99
2016-09-14T01:31:26.967Z,99.99
2016-09-14T01:32:26.951Z,99.99
2016-09-14T01:33:26.971Z,99.99
2016-09-14T01:34:26.962Z,99.99
2016-09-14T01:35:26.971Z,99.99
2016-09-14T01:36:26.974Z,99.99
2016-09-14T01:37:26.956Z,99.99
2016-09-14T01:38:26.965Z,99.99
2016-09-14T01:39:26.962Z,99.99
2016-09-14T01:40:26.963Z,99.99
2016-09-14T01:41:26.983Z,99.99
2016-09-14T01:42:27.256Z,99.99
2016-09-14T01:43:27.277Z,99.99
2016-09-14T01:44:27.177Z,99.99
2016-09-14T01:45:27.182Z,99.99
2016-09-14T01:46:27.362Z,99.99
2016-09-14T01:47:27.294Z,99.99
2016-09-14T01:48:27.173Z,99.99
2016-09-14T01:49:26.971Z,99.99
2016-09-14T01:50:27.284Z,99.99
2016-09-14T01:51:26.997Z,99.99
2016-09-14T01:52:26.992Z,99.99
2016-09-14T01:53:26.995Z,99.99
2016-09-14T01:54:27.011Z,99.99
2016-09-14T01:55:27.344Z,99.99
2016-09-14T01:56:26.993Z,99.99
2016-09-14T01:57:27.133Z,99.99
2016-09-14T01:58:26.991Z,99.99
2016-09-14T01:59:26.997Z,99.99
2016-09-14T02:00:26.992Z,99.99
2016-09-14T02:01:26.991Z,99.99
2016-09-14T02:02:26.984Z,99.99
2016-09-14T02:03:27.003Z,99.99
2016-09-14T02:04:26.992Z,99.99
2016-09-14T02:05:27.034Z,99.99
2016-09-14T02:06:27.002Z,99.99
2016-09-14T02:07:27.003Z,99.99
2016-09-14T02:08:26.987Z,99.99
2016-09-14T02:09:27.002Z,99.99
2016-09-14T02:10:26.995Z,99.99
2016-09-14T02:11:27.089Z,99.99
2016-09-14T02:12:27.011Z,99.99
2016-09-14T02:13:26.996Z,99.99
2016-09-14T02:14:27.102Z,99.99
2016-09-14T02:15:27.233Z,99.99
2016-09-14T02:16:27.387Z,99.99
2016-09-14T02:17:27.008Z,99.99
2016-09-14T02:18:27.073Z,99.99
2016-09-14T02:19:27.002Z,99.99
2016-09-14T02:20:27.022Z,99.99
2016-09-14T02:21:27.011Z,99.99
2016-09-14T02:22:27.405Z,99.99
2016-09-14T02:23:27.017Z,99.99
2016-09-14T02:24:27.035Z,99.99
2016-09-14T02:25:27.022Z,99.99
2016-09-14T02:26:27.123Z,99.99
2016-09-14T02:27:27.054Z,99.99
2016-09-14T02:28:27.022Z,99.99
2016-09-14T02:29:27.026Z,99.99
2016-09-14T02:30:27.012Z,99.99
2016-09-14T02:31:27.031Z,99.99
2016-09-14T02:32:27.027Z,99.99
2016-09-14T02:33:27.027Z,99.99
2016-09-14T02:34:27.016Z,99.99
2016-09-14T02:35:27.033Z,99.99
2016-09-14T02:36:27.031Z,99.99
2016-09-14T02:37:27.093Z,99.99
2016-09-14T02:38:27.020Z,99.99
2016-09-14T02:39:27.046Z,99.99
2016-09-14T02:40:27.028Z,99.99
2016-09-14T02:41:27.033Z,99.99
2016-09-14T02:42:27.016Z,99.99
2016-09-14T02:43:27.036Z,99.99
2016-09-14T02:44:27.042Z,99.99
2016-09-14T02:45:27.096Z,99.99
2016-09-14T02:46:27.029Z,99.99
2016-09-14T02:47:27.030Z,99.99
2016-09-14T02:48:27.036Z,99.99
2016-09-14T02:49:27.029Z,99.99
2016-09-14T02:50:27.051Z,99.99
2016-09-14T02:51:27.048Z,99.99
2016-09-14T02:52:27.050Z,99.99
2016-09-14T02:53:27.052Z,99.99
2016-09-14T02:54:27.070Z,99.99
2016-09-14T02:55:27.045Z,99.99
2016-09-14T02:56:27.044Z,99.99
2016-09-14T02:57:27.045Z,99.99
2016-09-14T02:58:27.565Z,99.99
2016-09-14T02:59:27.038Z,99.99
2016-09-14T03:00:27.038Z,99.99
2016-09-14T03:01:27.031Z,99.99
2016-09-14T03:02:27.042Z,99.99
2016-09-14T03:03:27.029Z,99.99
2016-09-14T03:04:27.685Z,99.99
2016-09-14T03:05:27.041Z,99.99
2016-09-14T03:06:27.042Z,99.99
2016-09-14T03:07:27.044Z,99.99
2016-09-14T03:08:27.054Z,99.99
2016-09-14T03:09:27.067Z,99.99
2016-09-14T03:10:27.150Z,99.99
2016-09-14T03:11:27.056Z,99.99
2016-09-14T03:12:27.067Z,99.99
2016-09-14T03:13:27.053Z,99.99
2016-09-14T03:14:27.041Z,99.99
2016-09-14T03:15:27.054Z,99.99
2016-09-14T03:16:27.042Z,99.99
2016-09-14T03:17:27.837Z,99.99
2016-09-14T03:18:28.103Z,99.99
2016-09-14T03:19:27.050Z,99.99
2016-09-14T03:20:27.058Z,99.99
2016-09-14T03:21:27.072Z,99.99
2016-09-14T03:22:27.061Z,99.99
2016-09-14T03:23:27.061Z,99.99
2016-09-14T03:24:27.067Z,99.99
2016-09-14T03:25:27.060Z,99.99
2016-09-14T03:26:27.055Z,99.99
2016-09-14T03:27:27.096Z,99.99
2016-09-14T03:28:27.070Z,99.99
2016-09-14T03:29:27.073Z,99.99
2016-09-14T03:30:27.073Z,99.99
2016-09-14T03:31:27.414Z,99.99
2016-09-14T03:32:27.299Z,99.99
2016-09-14T03:33:27.685Z,99.99
2016-09-14T03:34:27.151Z,99.99
2016-09-14T03:35:27.085Z,99.99
2016-09-14T03:36:27.122Z,99.99
2016-09-14T03:37:27.101Z,99.99
2016-09-14T03:38:27.939Z,99.99
2016-09-14T03:39:27.300Z,99.99
2016-09-14T03:40:27.075Z,99.99
2016-09-14T03:41:27.498Z,99.99
2016-09-14T03:42:27.073Z,99.99
2016-09-14T03:43:27.377Z,99.99
2016-09-14T03:44:27.088Z,99.99
2016-09-14T03:45:28.188Z,99.99
2016-09-14T03:46:27.617Z,99.99
2016-09-14T03:47:27.082Z,99.99
2016-09-14T03:48:28.038Z,99.99
2016-09-14T03:49:27.103Z,99.99
2016-09-14T03:50:27.087Z,99.99
2016-09-14T03:51:27.095Z,99.99
2016-09-14T03:52:27.085Z,99.99
2016-09-14T03:53:27.101Z,99.99
2016-09-14T03:54:27.127Z,99.99
2016-09-14T03:55:27.939Z,99.99
2016-09-14T03:56:27.082Z,99.99
2016-09-14T03:57:27.097Z,99.99
2016-09-14T03:58:27.094Z,99.99
2016-09-14T03:59:27.120Z,99.99
2016-09-14T04:00:27.104Z,99.99
2016-09-14T04:01:27.089Z,99.99
2016-09-14T04:02:27.085Z,99.99
2016-09-14T04:03:27.100Z,99.99
2016-09-14T04:04:27.097Z,99.99
2016-09-14T04:05:27.097Z,99.99
2016-09-14T04:06:27.088Z,99.99
2016-09-14T04:07:27.098Z,99.99
2016-09-14T04:08:27.105Z,99.99
2016-09-14T04:09:27.094Z,99.99
2016-09-14T04:10:27.100Z,99.99
2016-09-14T04:11:27.095Z,99.99
2016-09-14T04:12:27.117Z,99.99
2016-09-14T04:13:27.110Z,99.99
2016-09-14T04:14:27.111Z,99.99
2016-09-14T04:15:27.104Z,99.99
2016-09-14T04:16:27.132Z,99.99
2016-09-14T04:17:27.117Z,99.99
2016-09-14T04:18:27.109Z,99.99
2016-09-14T04:19:27.116Z,99.99
2016-09-14T04:20:27.107Z,99.99
2016-09-14T04:21:27.116Z,99.99
2016-09-14T04:22:27.127Z,99.99
2016-09-14T04:23:27.114Z,99.99
2016-09-14T04:24:27.134Z,99.99
2016-09-14T04:25:27.113Z,99.99
2016-09-14T04:26:27.106Z,99.99
2016-09-14T04:27:27.110Z,99.99
2016-09-14T04:28:27.132Z,99.99
2016-09-14T04:29:27.123Z,99.99
2016-09-14T04:30:27.135Z,99.99
2016-09-14T04:31:27.134Z,99.99
2016-09-14T04:32:27.121Z,99.99
2016-09-14T04:33:27.131Z,99.99
2016-09-14T04:34:27.138Z,99.99
2016-09-14T04:35:27.119Z,99.99
2016-09-14T04:36:27.130Z,99.99
2016-09-14T04:37:27.136Z,99.99
2016-09-14T04:38:27.126Z,99.99
2016-09-14T04:39:27.135Z,99.99
2016-09-14T04:40:27.148Z,99.99
2016-09-14T04:41:27.163Z,99.99
2016-09-14T04:42:27.136Z,99.99
2016-09-14T04:43:27.133Z,99.99
2016-09-14T04:44:27.151Z,99.99
2016-09-14T04:45:27.156Z,99.99
2016-09-14T04:46:27.134Z,99.99
2016-09-14T04:47:27.140Z,99.99
2016-09-14T04:48:27.147Z,99.99
2016-09-14T04:49:27.142Z,99.99
2016-09-14T04:50:27.131Z,99.99
2016-09-14T04:51:27.150Z,99.99
2016-09-14T04:52:27.150Z,99.99
2016-09-14T04:53:27.149Z,99.99
2016-09-14T04:54:27.177Z,99.99
2016-09-14T04:55:27.149Z,99.99
2016-09-14T04:56:27.149Z,99.99
2016-09-14T04:57:27.182Z,99.99
2016-09-14T04:58:27.140Z,99.99
2016-09-14T04:59:27.159Z,99.99
2016-09-14T05:00:27.176Z,99.99
2016-09-14T05:01:27.173Z,99.99
2016-09-14T05:02:27.159Z,99.99
2016-09-14T05:03:27.200Z,99.99
2016-09-14T05:04:27.185Z,99.99
2016-09-14T05:05:27.179Z,99.99
2016-09-14T05:06:27.164Z,99.99
2016-09-14T05:07:27.163Z,99.99
2016-09-14T05:08:27.211Z,99.99
2016-09-14T05:09:27.203Z,99.99
2016-09-14T05:10:27.210Z,99.99
2016-09-14T05:11:27.185Z,99.99
2016-09-14T05:12:27.209Z,99.99
2016-09-14T05:13:27.223Z,99.99
2016-09-14T05:14:27.201Z,99.99
2016-09-14T05:15:27.198Z,99.99
2016-09-14T05:16:27.200Z,99.99
2016-09-14T05:17:27.215Z,99.99
2016-09-14T05:18:27.172Z,99.99
2016-09-14T05:19:27.178Z,99.99
2016-09-14T05:20:27.196Z,99.99
2016-09-14T05:21:27.193Z,99.99
2016-09-14T05:22:27.175Z,99.99
2016-09-14T05:23:27.178Z,99.99
2016-09-14T05:24:27.176Z,99.99
2016-09-14T05:25:27.169Z,99.99
2016-09-14T05:26:27.168Z,99.99
2016-09-14T05:27:27.172Z,99.99
2016-09-14T05:28:27.209Z,99.99
2016-09-14T05:29:27.219Z,99.99
2016-09-14T05:30:27.187Z,99.99
2016-09-14T05:31:27.229Z,99.99
2016-09-14T05:32:27.528Z,99.99
2016-09-14T05:33:27.191Z,99.99
2016-09-14T05:34:27.511Z,99.99
2016-09-14T05:35:28.790Z,99.99
2016-09-14T05:36:27.564Z,99.99
2016-09-14T05:37:27.330Z,99.99
2016-09-14T05:38:27.352Z,99.99
2016-09-14T05:39:28.289Z,99.99
2016-09-14T05:40:27.185Z,99.99
2016-09-14T05:41:27.216Z,99.99
2016-09-14T05:42:27.195Z,99.99
2016-09-14T05:43:28.557Z,99.99
2016-09-14T05:44:27.199Z,99.99
2016-09-14T05:45:27.194Z,99.99
2016-09-14T05:46:27.210Z,99.99
2016-09-14T05:47:28.053Z,99.99
2016-09-14T05:48:27.207Z,99.99
2016-09-14T05:49:27.210Z,99.99
2016-09-14T05:50:27.204Z,99.99
2016-09-14T05:51:27.221Z,99.99
2016-09-14T05:52:27.217Z,99.99
2016-09-14T05:53:27.195Z,99.99
2016-09-14T05:54:27.228Z,99.99
2016-09-14T05:55:27.215Z,99.99
2016-09-14T05:56:27.207Z,99.99
2016-09-14T05:57:27.201Z,99.99
2016-09-14T05:58:27.207Z,99.99
2016-09-14T05:59:27.214Z,99.99
2016-09-14T06:00:27.204Z,99.99
2016-09-14T06:01:27.197Z,99.99
2016-09-14T06:02:27.209Z,99.99
2016-09-14T06:03:27.204Z,99.99
2016-09-14T06:04:27.210Z,99.99
2016-09-14T06:05:27.210Z,99.99
2016-09-14T06:06:27.223Z,99.99
2016-09-14T06:07:27.223Z,99.99
2016-09-14T06:08:27.218Z,99.99
2016-09-14T06:09:27.248Z,99.99
2016-09-14T06:10:27.230Z,99.99
2016-09-14T06:11:27.262Z,99.99
2016-09-14T06:12:27.211Z,99.99
2016-09-14T06:13:27.255Z,99.99
2016-09-14T06:14:27.214Z,99.99
2016-09-14T06:15:27.271Z,99.99
2016-09-14T06:16:27.237Z,99.99
2016-09-14T06:17:27.213Z,99.99
2016-09-14T06:18:27.226Z,99.99
2016-09-14T06:19:27.223Z,99.99
2016-09-14T06:20:27.220Z,99.99
2016-09-14T06:21:27.229Z,99.99
2016-09-14T06:22:27.218Z,99.99
2016-09-14T06:23:27.218Z,99.99
2016-09-14T06:24:27.240Z,99.99
2016-09-14T06:25:27.223Z,99.99
2016-09-14T06:26:27.221Z,99.99
2016-09-14T06:27:27.220Z,99.99
2016-09-14T06:28:27.214Z,99.99
2016-09-14T06:29:27.223Z,99.99
2016-09-14T06:30:27.232Z,99.99
2016-09-14T06:31:27.233Z,99.99
2016-09-14T06:32:27.233Z,99.99
2016-09-14T06:33:27.230Z,99.99
2016-09-14T06:34:27.246Z,99.99
2016-09-14T06:35:27.238Z,99.99
2016-09-14T06:36:27.243Z,99.99
2016-09-14T06:37:27.252Z,99.99
2016-09-14T06:38:27.257Z,99.99
2016-09-14T06:39:27.259Z,99.99
2016-09-14T06:40:27.255Z,99.99
2016-09-14T06:41:27.262Z,99.99
2016-09-14T06:42:27.268Z,99.99
2016-09-14T06:43:27.246Z,99.99
2016-09-14T06:44:27.249Z,99.99
2016-09-14T06:45:27.260Z,99.99
2016-09-14T06:46:27.250Z,99.99
2016-09-14T06:47:27.259Z,99.99
2016-09-14T06:48:27.271Z,99.99
2016-09-14T06:49:27.265Z,99.99
2016-09-14T06:50:27.274Z,99.99
2016-09-14T06:51:27.265Z,99.99
2016-09-14T06:52:27.261Z,99.99
2016-09-14T06:53:27.295Z,99.99
2016-09-14T06:54:27.304Z,99.99
2016-09-14T06:55:27.262Z,99.99
2016-09-14T06:56:27.269Z,99.99
2016-09-14T06:57:27.248Z,99.99
2016-09-14T06:58:27.249Z,99.99
2016-09-14T06:59:27.258Z,99.99
2016-09-14T07:00:27.252Z,99.99
2016-09-14T07:01:27.261Z,99.99
2016-09-14T07:02:27.273Z,99.99
2016-09-14T07:03:27.266Z,99.99
2016-09-14T07:04:27.271Z,99.99
2016-09-14T07:05:27.294Z,99.99
2016-09-14T07:06:27.268Z,99.99
2016-09-14T07:07:27.264Z,99.99
2016-09-14T07:08:27.263Z,99.99
2016-09-14T07:09:27.291Z,99.99
2016-09-14T07:10:27.268Z,99.99
2016-09-14T07:11:27.284Z,99.99
2016-09-14T07:12:27.282Z,99.99
2016-09-14T07:13:27.285Z,99.99
2016-09-14T07:14:27.283Z,99.74
2016-09-14T07:15:27.274Z,99.64
2016-09-14T07:16:27.285Z,98.49
2016-09-14T07:17:27.285Z,96.27
2016-09-14T07:18:27.279Z,96.75
2016-09-14T07:19:27.289Z,97.81
2016-09-14T07:20:27.291Z,96.66
2016-09-14T07:21:27.341Z,96.08
2016-09-14T07:22:27.363Z,96.51
2016-09-14T07:23:27.311Z,95.16
2016-09-14T07:24:27.346Z,94.87
2016-09-14T07:25:27.288Z,94.58
2016-09-14T07:26:27.301Z,92.85
2016-09-14T07:27:27.292Z,93.66
2016-09-14T07:28:27.285Z,94.2
2016-09-14T07:29:27.304Z,93.37
2016-09-14T07:30:27.302Z,93.08
2016-09-14T07:31:27.321Z,92.5
2016-09-14T07:32:27.308Z,92.6
2016-09-14T07:33:27.304Z,92.7
2016-09-14T07:34:27.316Z,92.6
2016-09-14T07:35:27.365Z,92.6
2016-09-14T07:36:27.314Z,91.97
2016-09-14T07:37:27.308Z,91.44
2016-09-14T07:38:27.295Z,90.62
2016-09-14T07:39:27.303Z,90.05
2016-09-14T07:40:27.313Z,90.23
2016-09-14T07:41:27.325Z,90.23
2016-09-14T07:42:27.294Z,89.95
2016-09-14T07:43:27.310Z,89.56
2016-09-14T07:44:27.312Z,88.98
2016-09-14T07:45:27.309Z,88.59
2016-09-14T07:46:27.329Z,88.5
2016-09-14T07:47:27.316Z,88.83
2016-09-14T07:48:27.308Z,87.77
2016-09-14T07:49:27.342Z,88.06
2016-09-14T07:50:27.314Z,86.8
2016-09-14T07:51:27.317Z,87
2016-09-14T07:52:27.318Z,86.61
2016-09-14T07:53:27.319Z,86.9
2016-09-14T07:54:27.361Z,86.75
2016-09-14T07:55:27.377Z,86.75
2016-09-14T07:56:27.330Z,86.75
2016-09-14T07:57:27.331Z,86.17
2016-09-14T07:58:27.335Z,86.94
2016-09-14T07:59:27.328Z,86.27
2016-09-14T08:00:27.320Z,85.3
2016-09-14T08:01:27.330Z,83.85
2016-09-14T08:02:27.317Z,83.89
2016-09-14T08:03:27.324Z,83.12
2016-09-14T08:04:27.317Z,83.55
2016-09-14T08:05:27.325Z,83.89
2016-09-14T08:06:27.334Z,83.64
2016-09-14T08:07:27.321Z,83.45
2016-09-14T08:08:27.333Z,83.26
2016-09-14T08:09:27.333Z,82
2016-09-14T08:10:27.331Z,80.94
2016-09-14T08:11:27.335Z,81.57
2016-09-14T08:12:27.356Z,81.42
2016-09-14T08:13:27.354Z,81.23
2016-09-14T08:14:27.342Z,80.65
2016-09-14T08:15:27.355Z,80.2
2016-09-14T08:16:27.340Z,79.82
2016-09-14T08:17:27.383Z,80.74
2016-09-14T08:18:27.349Z,80.79
2016-09-14T08:19:27.363Z,80.2
2016-09-14T08:20:27.346Z,80.3
2016-09-14T08:21:27.352Z,79.62
2016-09-14T08:22:27.343Z,79.52
2016-09-14T08:23:27.347Z,78.75
2016-09-14T08:24:27.353Z,79.14
2016-09-14T08:25:27.416Z,79.24
2016-09-14T08:26:27.381Z,79.04
2016-09-14T08:27:27.356Z,79.27
2016-09-14T08:28:27.410Z,79.95
2016-09-14T08:29:27.355Z,78.5
2016-09-14T08:30:27.362Z,78.31
2016-09-14T08:31:27.351Z,78.79
2016-09-14T08:32:27.363Z,79.17
2016-09-14T08:33:27.589Z,77.63
2016-09-14T08:34:27.382Z,77.92
2016-09-14T08:35:27.365Z,76.86
2016-09-14T08:36:27.391Z,76.7
2016-09-14T08:37:27.381Z,77.09
2016-09-14T08:38:27.375Z,77.28
2016-09-14T08:39:27.362Z,76.89
2016-09-14T08:40:27.391Z,77.47
2016-09-14T08:41:27.374Z,76.12
2016-09-14T08:42:27.381Z,74.66
2016-09-14T08:43:27.417Z,74.76
2016-09-14T08:44:27.408Z,75.24
2016-09-14T08:45:27.460Z,75.54
2016-09-14T08:46:27.378Z,75.24
2016-09-14T08:47:27.389Z,75.19
2016-09-14T08:48:27.387Z,74.41
2016-09-14T08:49:27.369Z,74.6
2016-09-14T08:50:27.387Z,75.09
2016-09-14T08:51:27.416Z,75.87
2016-09-14T08:52:27.380Z,76.15
2016-09-14T08:53:27.393Z,75.28
2016-09-14T08:54:27.420Z,75.23
2016-09-14T08:55:27.372Z,74.7
2016-09-14T08:56:27.398Z,74.35
2016-09-14T08:57:27.383Z,74.74
2016-09-14T08:58:27.383Z,74.45
2016-09-14T08:59:27.430Z,74.64
2016-09-14T09:00:27.403Z,73.09
2016-09-14T09:01:27.424Z,72.99
2016-09-14T09:02:27.396Z,72.89
2016-09-14T09:03:27.429Z,73.09
2016-09-14T09:04:27.391Z,72.89
2016-09-14T09:05:27.427Z,73.58
2016-09-14T09:06:27.383Z,72.89
2016-09-14T09:07:27.388Z,72.12
2016-09-14T09:08:27.409Z,73.22
2016-09-14T09:09:27.401Z,72.93
2016-09-14T09:10:27.408Z,72.16
2016-09-14T09:11:27.405Z,71.77
2016-09-14T09:12:27.393Z,71.38
2016-09-14T09:13:27.431Z,71.28
2016-09-14T09:14:27.412Z,71.86
2016-09-14T09:15:27.415Z,72.16
2016-09-14T09:16:27.409Z,72.06
2016-09-14T09:17:27.429Z,72.09
2016-09-14T09:18:27.431Z,72.29
2016-09-14T09:19:27.410Z,72.67
2016-09-14T09:20:27.426Z,72.58
2016-09-14T09:21:27.413Z,71.7
2016-09-14T09:22:27.401Z,71.8
2016-09-14T09:23:27.437Z,71.42
2016-09-14T09:24:27.441Z,71.42
2016-09-14T09:25:27.423Z,71.22
2016-09-14T09:26:27.419Z,71.51
2016-09-14T09:27:27.438Z,70.06
2016-09-14T09:28:27.415Z,70.97
2016-09-14T09:29:27.428Z,69.9
2016-09-14T09:30:27.423Z,69.9
2016-09-14T09:31:27.423Z,69.51
2016-09-14T09:32:27.436Z,68.73
2016-09-14T09:33:27.458Z,69.9
2016-09-14T09:34:27.456Z,69.41
2016-09-14T09:35:27.444Z,69.8
2016-09-14T09:36:27.435Z,69.41
2016-09-14T09:37:27.429Z,68.67
2016-09-14T09:38:27.420Z,69.32
2016-09-14T09:39:27.444Z,69.35
2016-09-14T09:40:28.193Z,69.06
2016-09-14T09:41:27.452Z,69.22
2016-09-14T09:42:27.443Z,68.48
2016-09-14T09:43:27.545Z,68.18
2016-09-14T09:44:27.473Z,68.87
2016-09-14T09:45:27.446Z,68.67
2016-09-14T09:46:27.440Z,68.02
2016-09-14T09:47:27.433Z,68.12
2016-09-14T09:48:27.445Z,68.9
2016-09-14T09:49:27.435Z,69.48
2016-09-14T09:50:27.447Z,69.15
2016-09-14T09:51:27.429Z,67.63
2016-09-14T09:52:27.438Z,66.27
2016-09-14T09:53:27.450Z,65.01
2016-09-14T09:54:27.478Z,66.17
2016-09-14T09:55:27.456Z,66.17
2016-09-14T09:56:27.447Z,66.89
2016-09-14T09:57:27.444Z,67.63
2016-09-14T09:58:27.457Z,66.69
2016-09-14T09:59:27.476Z,64.75
2016-09-14T10:00:27.449Z,65.33
2016-09-14T10:01:27.496Z,66.02
2016-09-14T10:02:27.467Z,65.14
2016-09-14T10:03:27.451Z,64.56
2016-09-14T10:04:27.455Z,65.33
2016-09-14T10:05:27.458Z,64.56
2016-09-14T10:06:27.497Z,64.85
2016-09-14T10:07:27.475Z,64.95
2016-09-14T10:08:27.464Z,65.08
2016-09-14T10:09:27.494Z,64.78
2016-09-14T10:10:27.458Z,64.49
2016-09-14T10:11:27.516Z,64.49
2016-09-14T10:12:27.702Z,65.27
2016-09-14T10:13:27.471Z,64.39
2016-09-14T10:14:27.476Z,64.39
2016-09-14T10:15:27.475Z,64.98
2016-09-14T10:16:27.723Z,64.81
2016-09-14T10:17:27.511Z,64.98
2016-09-14T10:18:27.487Z,64.91
2016-09-14T10:19:27.474Z,63.9
2016-09-14T10:20:27.476Z,63.55
2016-09-14T10:21:27.485Z,63.26
2016-09-14T10:22:27.504Z,64.32
2016-09-14T10:23:27.479Z,64.52
2016-09-14T10:24:27.500Z,63.94
2016-09-14T10:25:27.496Z,63.65
2016-09-14T10:26:27.477Z,62.99
2016-09-14T10:27:27.487Z,62.57
2016-09-14T10:28:27.477Z,62.7
2016-09-14T10:29:27.477Z,62.02
2016-09-14T10:30:27.486Z,61.24
2016-09-14T10:31:27.505Z,61.54
2016-09-14T10:32:27.501Z,62.02
2016-09-14T10:33:27.487Z,61.73
2016-09-14T10:34:27.476Z,60.85
2016-09-14T10:35:27.496Z,60.66
2016-09-14T10:36:27.506Z,62.02
2016-09-14T10:37:27.501Z,60.85
2016-09-14T10:38:27.485Z,60.46
2016-09-14T10:39:27.507Z,59.1
2016-09-14T10:40:27.508Z,58.74
2016-09-14T10:41:27.826Z,59.03
2016-09-14T10:42:27.508Z,59.33
2016-09-14T10:43:27.506Z,59.62
2016-09-14T10:44:28.262Z,60
2016-09-14T10:45:28.592Z,60
2016-09-14T10:46:27.501Z,60.1
2016-09-14T10:47:27.501Z,60.3
2016-09-14T10:48:27.498Z,60.59
2016-09-14T10:49:27.957Z,60.78
2016-09-14T10:50:28.080Z,58.67
2016-09-14T10:51:27.500Z,59.33
2016-09-14T10:52:27.517Z,59.74
2016-09-14T10:53:27.523Z,60.23
2016-09-14T10:54:27.543Z,60.52
2016-09-14T10:55:27.509Z,59.06
2016-09-14T10:56:27.517Z,57.6
2016-09-14T10:57:27.512Z,57.5
2016-09-14T10:58:27.528Z,58.48
2016-09-14T10:59:27.504Z,58.09
2016-09-14T11:00:27.524Z,58.5
2016-09-14T11:01:28.277Z,57.73
2016-09-14T11:02:27.516Z,58.31
2016-09-14T11:03:27.517Z,58.99
2016-09-14T11:04:27.741Z,58.4
2016-09-14T11:05:27.531Z,58.12
2016-09-14T11:06:27.523Z,57.34
2016-09-14T11:07:27.554Z,56.16
2016-09-14T11:08:27.539Z,55.38
2016-09-14T11:09:27.524Z,55.58
2016-09-14T11:10:27.540Z,56.07
2016-09-14T11:11:27.534Z,56.2
2016-09-14T11:12:27.557Z,56.68
2016-09-14T11:13:27.601Z,56.07
2016-09-14T11:14:27.533Z,55.71
2016-09-14T11:15:27.533Z,56.29
2016-09-14T11:16:27.537Z,55.9
2016-09-14T11:17:27.546Z,55.61
2016-09-14T11:18:27.539Z,54.53
2016-09-14T11:19:27.550Z,55.12
2016-09-14T11:20:27.571Z,55.51
2016-09-14T11:21:27.548Z,55.8
2016-09-14T11:22:27.549Z,56.1
2016-09-14T11:23:27.533Z,56.58
2016-09-14T11:24:28.204Z,57.07
2016-09-14T11:25:27.545Z,57.36
2016-09-14T11:26:27.716Z,57.17
2016-09-14T11:27:27.544Z,56.71
2016-09-14T11:28:27.534Z,54.93
2016-09-14T11:29:27.545Z,56.41
2016-09-14T11:30:27.561Z,57.2
2016-09-14T11:31:27.574Z,56.81
2016-09-14T11:32:27.548Z,56.22
2016-09-14T11:33:27.574Z,56.61
2016-09-14T11:34:27.580Z,56.32
2016-09-14T11:35:27.559Z,56.81
2016-09-14T11:36:28.159Z,55.93
2016-09-14T11:37:27.580Z,55.54
2016-09-14T11:38:27.572Z,55.96
2016-09-14T11:39:27.565Z,55.54
2016-09-14T11:40:27.563Z,55.05
2016-09-14T11:41:27.575Z,54.95
2016-09-14T11:42:27.573Z,53.71
2016-09-14T11:43:27.568Z,54
2016-09-14T11:44:27.563Z,53.91
2016-09-14T11:45:27.576Z,54.36
2016-09-14T11:46:27.926Z,54.07
2016-09-14T11:47:27.590Z,54.3
2016-09-14T11:48:27.590Z,54.3
2016-09-14T11:49:27.629Z,54.2
2016-09-14T11:50:27.580Z,54.39
2016-09-14T11:51:27.574Z,54.69
2016-09-14T11:52:27.582Z,53.22
2016-09-14T11:53:27.595Z,53.32
2016-09-14T11:54:27.615Z,53.22
2016-09-14T11:55:27.633Z,53.42
2016-09-14T11:56:27.597Z,53.03
2016-09-14T11:57:27.599Z,54.2
2016-09-14T11:58:27.574Z,53.52
2016-09-14T11:59:27.586Z,53.91
2016-09-14T12:00:27.599Z,53.32
2016-09-14T12:01:27.596Z,53.25
2016-09-14T12:02:27.586Z,52.83
2016-09-14T12:03:27.588Z,52.73
2016-09-14T12:04:27.582Z,52.56
2016-09-14T12:05:27.586Z,52.17
2016-09-14T12:06:27.586Z,51.56
2016-09-14T12:07:27.597Z,51.49
2016-09-14T12:08:27.679Z,51.49
2016-09-14T12:09:27.587Z,52.76
2016-09-14T12:10:28.251Z,51.17
2016-09-14T12:11:27.600Z,51.29
2016-09-14T12:12:27.598Z,51.68
2016-09-14T12:13:27.700Z,51.29
2016-09-14T12:14:27.614Z,51.39
2016-09-14T12:15:27.630Z,49.82
2016-09-14T12:16:27.617Z,48.75
2016-09-14T12:17:27.649Z,49.24
2016-09-14T12:18:27.610Z,49.82
2016-09-14T12:19:27.599Z,50.71
2016-09-14T12:20:27.779Z,50.51
2016-09-14T12:21:27.639Z,51
2016-09-14T12:22:28.249Z,51
2016-09-14T12:23:27.638Z,51
2016-09-14T12:24:27.954Z,49.43
2016-09-14T12:25:27.621Z,49.92
2016-09-14T12:26:27.627Z,49.92
2016-09-14T12:27:27.640Z,50.22
2016-09-14T12:28:27.612Z,50.32
2016-09-14T12:29:27.632Z,49.92
2016-09-14T12:30:27.653Z,49.04
2016-09-14T12:31:27.614Z,48.46
2016-09-14T12:32:27.620Z,49.36
2016-09-14T12:33:27.642Z,49.14
2016-09-14T12:34:27.614Z,49.53
2016-09-14T12:35:27.624Z,49.82
2016-09-14T12:36:27.652Z,49.73
2016-09-14T12:37:27.624Z,49.33
2016-09-14T12:38:27.627Z,49.24
2016-09-14T12:39:27.624Z,49.53
2016-09-14T12:40:27.632Z,49.26
2016-09-14T12:41:27.630Z,48.85
2016-09-14T12:42:27.624Z,49.26
2016-09-14T12:43:27.834Z,48.07
2016-09-14T12:44:27.660Z,48.46
2016-09-14T12:45:27.666Z,48.65
2016-09-14T12:46:27.638Z,47.97
2016-09-14T12:47:27.656Z,47.87
2016-09-14T12:48:27.634Z,48.46
2016-09-14T12:49:27.640Z,47.67
2016-09-14T12:50:27.653Z,47.28
2016-09-14T12:51:27.652Z,47.6
2016-09-14T12:52:27.657Z,47.97
2016-09-14T12:53:27.665Z,48.85
2016-09-14T12:54:27.685Z,49.07